createdAt,value
2023-03-07T00:00:15.382Z,99.90
2023-03-07T00:02:42.583Z,99.90
2023-03-07T00:05:09.828Z,99.90
2023-03-07T00:07:37.149Z,99.90
2023-03-07T00:10:05.013Z,99.90
2023-03-07T00:12:32.171Z,99.90
2023-03-07T00:14:59.371Z,99.90
2023-03-07T00:17:26.501Z,99.90
2023-03-07T00:19:53.674Z,99.90
2023-03-07T00:22:20.851Z,99.90
2023-03-07T00:24:48.738Z,99.90
2023-03-07T00:27:15.992Z,99.90
2023-03-07T00:29:43.193Z,99.90
2023-03-07T00:32:10.480Z,99.90
2023-03-07T00:34:37.702Z,99.90
2023-03-07T00:37:04.949Z,99.90
2023-03-07T00:39:32.203Z,99.90
2023-03-07T00:41:59.663Z,99.90
2023-03-07T00:44:29.902Z,99.90
2023-03-07T00:46:57.148Z,99.90
2023-03-07T00:49:24.417Z,99.90
2023-03-07T00:51:51.598Z,99.90
2023-03-07T00:54:19.078Z,99.90
2023-03-07T00:56:46.266Z,99.90
2023-03-07T00:59:13.514Z,99.90
2023-03-07T01:01:40.812Z,99.90
2023-03-07T01:04:08.084Z,99.90
2023-03-07T01:06:35.621Z,99.90
2023-03-07T01:09:07.262Z,99.90
2023-03-07T01:11:35.833Z,99.90
2023-03-07T01:14:05.649Z,99.90
2023-03-07T01:16:37.690Z,99.90
2023-03-07T01:19:07.919Z,99.90
2023-03-07T01:21:37.822Z,99.90
2023-03-07T01:24:06.220Z,99.90
2023-03-07T01:26:34.768Z,99.90
2023-03-07T01:29:04.533Z,99.90
2023-03-07T01:31:34.824Z,99.90
2023-03-07T01:34:03.540Z,99.90
2023-03-07T01:36:35.341Z,99.90
2023-03-07T01:39:16.889Z,99.90
2023-03-07T01:41:55.234Z,99.90
2023-03-07T01:44:26.504Z,99.90
2023-03-07T01:46:59.886Z,99.90
2023-03-07T01:49:38.067Z,99.90
2023-03-07T01:52:37.374Z,99.90
2023-03-07T01:55:16.565Z,99.90
2023-03-07T01:57:47.506Z,99.90
2023-03-07T02:00:23.186Z,99.90
2023-03-07T02:02:59.545Z,99.90
2023-03-07T02:05:32.648Z,99.90
2023-03-07T02:08:02.157Z,99.90
2023-03-07T02:10:33.934Z,99.90
2023-03-07T02:13:01.435Z,99.90
2023-03-07T02:15:28.854Z,99.90
2023-03-07T02:17:58.672Z,99.90
2023-03-07T02:20:44.729Z,99.90
2023-03-07T02:23:26.537Z,99.90
2023-03-07T02:26:02.625Z,99.90
2023-03-07T02:28:30.443Z,99.90
2023-03-07T02:31:00.629Z,99.90
2023-03-07T02:33:31.311Z,99.90
2023-03-07T02:36:11.163Z,99.90
2023-03-07T02:38:46.505Z,99.90
2023-03-07T02:41:16.949Z,99.90
2023-03-07T02:43:44.183Z,99.90
2023-03-07T02:46:12.066Z,99.90
2023-03-07T02:48:39.230Z,99.90
2023-03-07T02:51:06.865Z,99.90
2023-03-07T02:53:34.041Z,99.90
2023-03-07T02:56:01.207Z,99.90
2023-03-07T02:58:28.584Z,99.90
2023-03-07T03:00:55.735Z,99.90
2023-03-07T03:03:22.999Z,99.90
2023-03-07T03:05:50.270Z,99.90
2023-03-07T03:08:19.455Z,99.90
2023-03-07T03:10:51.793Z,99.90
2023-03-07T03:13:20.131Z,99.90
2023-03-07T03:15:48.226Z,99.90
2023-03-07T03:18:15.711Z,99.90
2023-03-07T03:20:42.975Z,99.90
2023-03-07T03:23:10.152Z,99.90
2023-03-07T03:25:40.081Z,99.90
2023-03-07T03:28:08.556Z,99.90
2023-03-07T03:30:36.454Z,99.90
2023-03-07T03:33:04.845Z,99.90
2023-03-07T03:35:33.527Z,99.90
2023-03-07T03:38:01.415Z,99.90
2023-03-07T03:40:28.819Z,99.90
2023-03-07T03:42:56.026Z,99.90
2023-03-07T03:45:25.845Z,99.90
2023-03-07T03:47:53.021Z,99.90
2023-03-07T03:50:20.338Z,99.90
2023-03-07T03:52:47.647Z,99.90
2023-03-07T03:55:14.831Z,99.90
2023-03-07T03:57:42.407Z,99.90
2023-03-07T04:00:14.758Z,99.90
2023-03-07T04:02:42.310Z,99.90
2023-03-07T04:05:15.124Z,99.90
2023-03-07T04:07:42.304Z,99.90
2023-03-07T04:10:10.109Z,99.90
2023-03-07T04:12:37.389Z,99.90
2023-03-07T04:15:07.252Z,99.90
2023-03-07T04:17:35.221Z,99.90
2023-03-07T04:20:04.946Z,99.90
2023-03-07T04:22:33.023Z,99.90
2023-03-07T04:25:00.252Z,99.90
2023-03-07T04:27:27.779Z,99.90
2023-03-07T04:29:55.677Z,99.90
2023-03-07T04:32:22.929Z,99.90
2023-03-07T04:34:50.257Z,99.90
2023-03-07T04:37:17.563Z,99.90
2023-03-07T04:39:44.739Z,99.90
2023-03-07T04:42:11.984Z,99.90
2023-03-07T04:44:39.197Z,99.90
2023-03-07T04:47:06.604Z,99.90
2023-03-07T04:49:36.237Z,99.90
2023-03-07T04:52:06.409Z,99.90
2023-03-07T04:54:33.843Z,99.90
2023-03-07T04:57:02.924Z,99.90
2023-03-07T04:59:30.311Z,99.90
2023-03-07T05:01:59.662Z,99.90
2023-03-07T05:04:27.734Z,99.90
2023-03-07T05:06:55.755Z,99.90
2023-03-07T05:09:23.067Z,99.90
2023-03-07T05:11:53.254Z,99.90
2023-03-07T05:14:20.965Z,99.90
2023-03-07T05:16:48.260Z,99.90
2023-03-07T05:19:15.802Z,99.90
2023-03-07T05:21:44.080Z,99.90
2023-03-07T05:24:11.750Z,99.90
2023-03-07T05:26:39.274Z,99.90
2023-03-07T05:29:06.409Z,99.90
2023-03-07T05:31:33.779Z,99.90
2023-03-07T05:34:01.013Z,99.90
2023-03-07T05:36:28.233Z,99.90
2023-03-07T05:38:57.018Z,99.90
2023-03-07T05:41:24.977Z,99.90
2023-03-07T05:43:52.202Z,99.90
2023-03-07T05:46:20.673Z,99.90
2023-03-07T05:48:47.922Z,99.90
2023-03-07T05:51:15.286Z,99.90
2023-03-07T05:53:43.255Z,99.90
2023-03-07T05:56:10.520Z,99.90
2023-03-07T05:58:38.704Z,99.90
2023-03-07T06:01:06.099Z,99.90
2023-03-07T06:03:34.086Z,99.90
2023-03-07T06:06:01.477Z,99.90
2023-03-07T06:08:28.746Z,99.90
2023-03-07T06:10:56.105Z,99.90
2023-03-07T06:13:25.328Z,99.90
2023-03-07T06:15:54.545Z,99.90
2023-03-07T06:18:25.600Z,99.90
2023-03-07T06:20:58.520Z,99.90
2023-03-07T06:23:28.690Z,99.90
2023-03-07T06:25:56.555Z,99.90
2023-03-07T06:28:24.072Z,99.90
2023-03-07T06:30:51.884Z,99.90
2023-03-07T06:33:19.878Z,99.90
2023-03-07T06:35:47.716Z,99.90
2023-03-07T06:38:16.241Z,99.90
2023-03-07T06:40:44.330Z,99.90
2023-03-07T06:43:13.168Z,99.90
2023-03-07T06:45:40.419Z,99.90
2023-03-07T06:48:08.722Z,99.90
2023-03-07T06:50:37.579Z,99.90
2023-03-07T06:53:05.845Z,99.90
2023-03-07T06:55:33.028Z,99.90
2023-03-07T06:58:00.180Z,99.90
2023-03-07T07:00:27.724Z,99.90
2023-03-07T07:02:55.517Z,99.90
2023-03-07T07:05:23.046Z,99.90
2023-03-07T07:07:50.446Z,99.90
2023-03-07T07:10:17.839Z,99.90
2023-03-07T07:12:45.217Z,99.90
2023-03-07T07:15:13.423Z,99.90
2023-03-07T07:17:40.893Z,99.90
2023-03-07T07:20:11.225Z,99.90
2023-03-07T07:22:39.892Z,99.90
2023-03-07T07:25:07.366Z,99.90
2023-03-07T07:27:36.505Z,99.90
2023-03-07T07:30:05.642Z,99.90
2023-03-07T07:32:33.294Z,99.90
2023-03-07T07:35:02.001Z,99.90
2023-03-07T07:37:30.930Z,99.90
2023-03-07T07:39:58.121Z,99.90
2023-03-07T07:42:25.704Z,99.90
2023-03-07T07:45:22.746Z,99.90
2023-03-07T07:47:51.168Z,99.90
2023-03-07T07:50:20.763Z,99.90
2023-03-07T07:52:49.124Z,99.90
2023-03-07T07:55:16.470Z,99.90
2023-03-07T07:57:44.369Z,99.90
2023-03-07T08:00:13.191Z,99.90
2023-03-07T08:02:40.426Z,99.90
2023-03-07T08:05:10.176Z,99.90
2023-03-07T08:07:37.404Z,99.90
2023-03-07T08:10:05.177Z,99.90
2023-03-07T08:12:32.380Z,99.90
2023-03-07T08:14:59.659Z,99.90
2023-03-07T08:17:28.370Z,99.90
2023-03-07T08:19:55.793Z,99.90
2023-03-07T08:22:22.941Z,99.90
2023-03-07T08:24:51.387Z,99.90
2023-03-07T08:27:18.553Z,99.90
2023-03-07T08:29:49.226Z,99.90
2023-03-07T08:32:16.775Z,99.90
2023-03-07T08:34:44.042Z,99.90
2023-03-07T08:37:11.257Z,99.90
2023-03-07T08:39:38.429Z,99.90
2023-03-07T08:42:06.879Z,99.90
2023-03-07T08:44:34.091Z,99.90
2023-03-07T08:47:01.232Z,99.90
2023-03-07T08:49:28.378Z,99.90
2023-03-07T08:51:55.519Z,99.90
2023-03-07T08:54:22.713Z,99.90
2023-03-07T08:56:58.731Z,99.90
2023-03-07T08:59:26.407Z,99.90
2023-03-07T09:01:53.665Z,99.90
2023-03-07T09:04:20.871Z,99.90
2023-03-07T09:06:48.093Z,99.90
2023-03-07T09:09:15.275Z,99.90
2023-03-07T09:11:42.471Z,99.90
2023-03-07T09:14:09.733Z,99.90
2023-03-07T09:16:36.987Z,99.90
2023-03-07T09:19:04.235Z,99.90
2023-03-07T09:21:31.939Z,99.90
2023-03-07T09:23:59.304Z,99.90
2023-03-07T09:26:26.654Z,99.90
2023-03-07T09:28:53.855Z,99.90
2023-03-07T09:31:21.518Z,99.90
2023-03-07T09:33:48.831Z,99.90
2023-03-07T09:36:17.877Z,99.90
2023-03-07T09:38:46.175Z,99.90
2023-03-07T09:41:35.306Z,99.90
2023-03-07T09:44:34.698Z,99.90
2023-03-07T09:47:45.502Z,99.90
2023-03-07T09:50:29.245Z,99.90
2023-03-07T09:53:01.996Z,99.90
2023-03-07T09:55:30.911Z,99.90
2023-03-07T09:58:07.366Z,99.90
2023-03-07T10:00:40.241Z,99.90
2023-03-07T10:03:14.016Z,99.90
2023-03-07T10:05:49.583Z,99.90
2023-03-07T10:08:25.419Z,99.90
2023-03-07T10:10:55.584Z,99.90
2023-03-07T10:13:28.936Z,99.90
2023-03-07T10:16:09.669Z,99.90
2023-03-07T10:18:44.693Z,99.90
2023-03-07T10:21:36.145Z,99.90
2023-03-07T10:24:33.101Z,99.90
2023-03-07T10:27:14.638Z,99.90
2023-03-07T10:29:53.734Z,99.90
2023-03-07T10:32:47.249Z,99.90
2023-03-07T10:35:24.296Z,99.90
2023-03-07T10:38:12.352Z,99.90
2023-03-07T10:40:50.170Z,99.90
2023-03-07T10:43:33.075Z,99.90
2023-03-07T10:46:24.740Z,99.90
2023-03-07T10:48:59.726Z,99.90
2023-03-07T10:52:04.396Z,99.90
2023-03-07T10:54:34.377Z,99.90
2023-03-07T10:57:16.825Z,99.90
2023-03-07T10:59:49.816Z,99.90
2023-03-07T11:02:36.403Z,99.90
2023-03-07T11:05:23.933Z,99.90
2023-03-07T11:07:51.090Z,99.90
2023-03-07T11:10:33.098Z,99.90
2023-03-07T11:13:27.293Z,99.90
2023-03-07T11:16:21.898Z,99.90
2023-03-07T11:18:49.130Z,99.90
2023-03-07T11:21:36.217Z,99.90
2023-03-07T11:24:06.669Z,99.90
2023-03-07T11:26:40.106Z,99.90
2023-03-07T11:29:13.268Z,99.90
2023-03-07T11:31:59.586Z,99.90
2023-03-07T11:34:45.441Z,99.90
2023-03-07T11:37:34.598Z,99.90
2023-03-07T11:40:26.466Z,99.90
2023-03-07T11:43:21.673Z,99.90
2023-03-07T11:46:01.002Z,99.90
2023-03-07T11:48:40.009Z,99.90
2023-03-07T11:51:36.516Z,99.90
2023-03-07T11:54:36.771Z,99.90
2023-03-07T11:57:31.010Z,99.90
2023-03-07T12:00:03.500Z,99.90
2023-03-07T12:03:14.005Z,99.90
2023-03-07T12:05:55.779Z,99.90
2023-03-07T12:09:00.247Z,99.90
2023-03-07T12:11:48.990Z,99.90
2023-03-07T12:14:26.415Z,99.90
2023-03-07T12:17:07.569Z,99.90
2023-03-07T12:19:48.864Z,99.90
2023-03-07T12:22:35.277Z,99.90
2023-03-07T12:25:08.293Z,99.90
2023-03-07T12:27:42.522Z,99.90
2023-03-07T12:30:22.344Z,99.90
2023-03-07T12:32:51.220Z,99.90
2023-03-07T12:35:26.638Z,99.90
2023-03-07T12:38:26.727Z,99.90
2023-03-07T12:41:07.623Z,99.90
2023-03-07T12:43:40.697Z,99.90
2023-03-07T12:46:29.786Z,99.90
2023-03-07T12:49:22.730Z,99.90
2023-03-07T12:51:56.026Z,99.90
2023-03-07T12:54:30.352Z,99.90
2023-03-07T12:57:19.616Z,99.90
2023-03-07T12:59:46.783Z,99.90
2023-03-07T13:02:22.030Z,99.90
2023-03-07T13:04:49.293Z,99.90
2023-03-07T13:07:18.126Z,99.90
2023-03-07T13:09:47.817Z,99.90
2023-03-07T13:12:24.000Z,99.90
2023-03-07T13:14:58.075Z,99.90
2023-03-07T13:17:31.561Z,99.90
2023-03-07T13:20:19.955Z,99.90
2023-03-07T13:22:47.158Z,99.90
2023-03-07T13:25:24.857Z,99.90
2023-03-07T13:27:54.941Z,99.90
2023-03-07T13:30:32.425Z,99.90
2023-03-07T13:33:00.979Z,99.90
2023-03-07T13:35:28.233Z,99.90
2023-03-07T13:37:58.401Z,99.90
2023-03-07T13:40:35.884Z,99.90
2023-03-07T13:43:27.318Z,99.90
2023-03-07T13:46:05.838Z,99.90
2023-03-07T13:48:32.995Z,99.90
2023-03-07T13:51:00.272Z,99.90
2023-03-07T13:53:41.482Z,99.90
2023-03-07T13:56:19.912Z,99.80
2023-03-07T13:58:58.541Z,99.90
2023-03-07T14:01:47.396Z,99.90
2023-03-07T14:04:38.424Z,99.90
2023-03-07T14:07:22.301Z,99.90
2023-03-07T14:09:56.520Z,99.60
2023-03-07T14:12:47.598Z,99.40
2023-03-07T14:15:42.640Z,99.90
2023-03-07T14:18:31.446Z,99.70
2023-03-07T14:21:15.426Z,99.50
2023-03-07T14:24:07.585Z,99.10
2023-03-07T14:26:42.981Z,98.90
2023-03-07T14:29:21.533Z,99.10
2023-03-07T14:31:56.989Z,99.40
2023-03-07T14:34:24.156Z,99.20
2023-03-07T14:36:56.285Z,99.40
2023-03-07T14:39:25.206Z,98.60
2023-03-07T14:42:07.419Z,99.60
2023-03-07T14:44:40.372Z,99.10
2023-03-07T14:47:45.180Z,98.70
2023-03-07T14:50:29.715Z,99.30
2023-03-07T14:53:05.189Z,98.30
2023-03-07T14:55:41.549Z,98.80
2023-03-07T14:58:17.477Z,99.00
2023-03-07T15:00:44.890Z,99.70
2023-03-07T15:03:14.305Z,99.80
2023-03-07T15:05:51.058Z,99.30
2023-03-07T15:08:30.369Z,99.20
2023-03-07T15:11:20.832Z,98.10
2023-03-07T15:13:52.734Z,98.30
2023-03-07T15:16:46.284Z,98.60
2023-03-07T15:19:36.627Z,98.00
2023-03-07T15:22:08.590Z,98.20
2023-03-07T15:24:38.209Z,98.40
2023-03-07T15:27:10.369Z,98.30
2023-03-07T15:29:39.219Z,97.80
2023-03-07T15:32:27.469Z,97.00
2023-03-07T15:35:20.962Z,97.10
2023-03-07T15:37:52.467Z,96.90
2023-03-07T15:40:36.278Z,97.90
2023-03-07T15:43:04.519Z,96.80
2023-03-07T15:45:38.703Z,97.10
2023-03-07T15:48:29.221Z,96.70
2023-03-07T15:51:02.173Z,96.40
2023-03-07T15:53:32.513Z,96.60
2023-03-07T15:56:06.483Z,97.10
2023-03-07T15:58:36.430Z,96.60
2023-03-07T16:01:06.435Z,97.00
2023-03-07T16:03:33.909Z,97.10
2023-03-07T16:06:02.001Z,97.20
2023-03-07T16:08:29.251Z,97.70
2023-03-07T16:11:03.348Z,97.90
2023-03-07T16:13:33.010Z,97.90
2023-03-07T16:16:21.697Z,98.00
2023-03-07T16:18:50.479Z,98.10
2023-03-07T16:21:18.677Z,98.00
2023-03-07T16:23:47.237Z,98.50
2023-03-07T16:26:18.543Z,99.00
2023-03-07T16:28:45.772Z,98.60
2023-03-07T16:31:15.827Z,99.30
2023-03-07T16:33:44.234Z,99.20
2023-03-07T16:36:12.306Z,99.60
2023-03-07T16:38:40.166Z,99.40
2023-03-07T16:41:25.364Z,99.60
2023-03-07T16:43:56.040Z,99.30
2023-03-07T16:46:23.799Z,99.50
2023-03-07T16:48:51.115Z,99.30
2023-03-07T16:51:21.028Z,98.70
2023-03-07T16:53:50.165Z,99.20
2023-03-07T16:56:29.120Z,98.90
2023-03-07T16:58:57.587Z,98.80
2023-03-07T17:01:24.812Z,99.30
2023-03-07T17:03:52.169Z,99.20
2023-03-07T17:06:25.336Z,99.50
2023-03-07T17:08:54.953Z,99.60
2023-03-07T17:11:24.709Z,99.70
2023-03-07T17:13:55.108Z,99.90
2023-03-07T17:16:22.551Z,99.90
2023-03-07T17:18:50.001Z,99.90
2023-03-07T17:21:20.418Z,99.90
2023-03-07T17:23:49.355Z,99.90
2023-03-07T17:26:38.073Z,99.90
2023-03-07T17:29:09.278Z,99.90
2023-03-07T17:31:36.449Z,99.90
2023-03-07T17:34:03.784Z,99.90
2023-03-07T17:36:31.543Z,99.90
2023-03-07T17:38:58.752Z,99.90
2023-03-07T17:41:25.954Z,99.90
2023-03-07T17:43:53.111Z,99.90
2023-03-07T17:46:20.404Z,99.90
2023-03-07T17:48:47.613Z,99.90
2023-03-07T17:51:14.950Z,99.90
2023-03-07T17:53:42.342Z,99.90
2023-03-07T17:56:11.883Z,99.90
2023-03-07T17:58:39.230Z,99.90
2023-03-07T18:01:11.219Z,99.90
2023-03-07T18:03:38.786Z,99.90
2023-03-07T18:06:06.801Z,99.90
2023-03-07T18:08:34.625Z,99.90
2023-03-07T18:11:05.694Z,99.90
2023-03-07T18:13:33.121Z,99.90
2023-03-07T18:16:01.544Z,99.90
2023-03-07T18:18:33.151Z,99.90
2023-03-07T18:21:05.323Z,99.90
2023-03-07T18:23:33.667Z,99.90
2023-03-07T18:26:04.269Z,99.90
2023-03-07T18:28:31.747Z,99.90
2023-03-07T18:31:04.455Z,99.90
2023-03-07T18:33:32.641Z,99.90
2023-03-07T18:36:00.048Z,99.90
2023-03-07T18:38:27.498Z,99.90
2023-03-07T18:41:13.873Z,99.90
2023-03-07T18:43:41.318Z,99.90
2023-03-07T18:46:11.460Z,99.90
2023-03-07T18:48:38.962Z,99.90
2023-03-07T18:51:08.645Z,99.90
2023-03-07T18:53:36.703Z,99.90
2023-03-07T18:56:06.136Z,99.90
2023-03-07T18:58:34.038Z,99.90
2023-03-07T19:01:10.561Z,99.90
2023-03-07T19:03:37.807Z,99.90
2023-03-07T19:06:05.265Z,99.90
2023-03-07T19:08:32.603Z,99.90
2023-03-07T19:11:04.560Z,99.90
2023-03-07T19:13:32.381Z,99.90
2023-03-07T19:16:08.431Z,99.90
2023-03-07T19:18:36.305Z,99.90
2023-03-07T19:21:12.261Z,99.90
2023-03-07T19:23:40.299Z,99.90
2023-03-07T19:26:10.367Z,99.90
2023-03-07T19:28:37.560Z,99.90
2023-03-07T19:31:11.782Z,99.90
2023-03-07T19:33:39.743Z,99.90
2023-03-07T19:36:15.296Z,99.90
2023-03-07T19:38:43.319Z,99.90
2023-03-07T19:41:13.893Z,99.90
2023-03-07T19:43:41.518Z,99.90
2023-03-07T19:46:10.272Z,99.90
2023-03-07T19:48:40.472Z,99.90
2023-03-07T19:51:18.134Z,99.90
2023-03-07T19:53:46.417Z,99.90
2023-03-07T19:56:24.735Z,99.90
2023-03-07T19:58:51.900Z,99.90
2023-03-07T20:01:20.995Z,99.90
2023-03-07T20:03:48.642Z,99.90
2023-03-07T20:06:19.974Z,99.90
2023-03-07T20:08:48.609Z,99.90
2023-03-07T20:11:18.472Z,99.90
2023-03-07T20:13:47.140Z,99.90
2023-03-07T20:16:17.144Z,99.90
2023-03-07T20:18:48.533Z,99.90
2023-03-07T20:21:16.983Z,99.90
2023-03-07T20:23:46.083Z,99.90
2023-03-07T20:26:16.393Z,99.90
2023-03-07T20:28:44.406Z,99.90
2023-03-07T20:31:12.710Z,99.90
2023-03-07T20:33:41.661Z,99.90
2023-03-07T20:36:14.330Z,99.90
2023-03-07T20:38:41.540Z,99.90
2023-03-07T20:41:12.702Z,99.90
2023-03-07T20:43:40.036Z,99.90
2023-03-07T20:46:12.492Z,99.90
2023-03-07T20:48:42.117Z,99.90
2023-03-07T20:51:16.040Z,99.90
2023-03-07T20:53:43.307Z,99.90
2023-03-07T20:56:10.514Z,99.90
2023-03-07T20:58:37.717Z,99.90
2023-03-07T21:01:05.047Z,99.90
2023-03-07T21:03:32.419Z,99.90
2023-03-07T21:06:01.745Z,99.90
2023-03-07T21:08:30.982Z,99.90
2023-03-07T21:11:06.400Z,99.90
2023-03-07T21:13:37.406Z,99.90
2023-03-07T21:16:09.931Z,99.90
2023-03-07T21:18:37.632Z,99.90
2023-03-07T21:21:14.062Z,99.90
2023-03-07T21:23:41.261Z,99.90
2023-03-07T21:26:11.862Z,99.90
2023-03-07T21:28:39.614Z,99.90
2023-03-07T21:31:22.548Z,99.90
2023-03-07T21:33:55.414Z,99.90
2023-03-07T21:36:23.993Z,99.90
2023-03-07T21:38:51.430Z,99.90
2023-03-07T21:41:19.193Z,99.90
2023-03-07T21:43:46.380Z,99.90
2023-03-07T21:46:14.398Z,99.90
2023-03-07T21:48:42.422Z,99.90
2023-03-07T21:51:10.360Z,99.90
2023-03-07T21:53:37.836Z,99.90
2023-03-07T21:56:13.681Z,99.90
2023-03-07T21:58:41.337Z,99.90
2023-03-07T22:01:12.634Z,99.90
2023-03-07T22:03:40.273Z,99.90
2023-03-07T22:06:09.269Z,99.90
2023-03-07T22:08:37.509Z,99.90
2023-03-07T22:11:06.811Z,99.90
2023-03-07T22:13:35.145Z,99.90
2023-03-07T22:16:05.476Z,99.90
2023-03-07T22:18:33.114Z,99.90
2023-03-07T22:21:26.489Z,99.90
2023-03-07T22:24:00.659Z,99.90
2023-03-07T22:26:29.103Z,99.90
2023-03-07T22:28:57.071Z,99.90
2023-03-07T22:31:25.065Z,99.90
2023-03-07T22:33:52.632Z,99.90
2023-03-07T22:36:20.034Z,99.90
2023-03-07T22:38:47.339Z,99.90
2023-03-07T22:41:18.177Z,99.90
2023-03-07T22:43:45.652Z,99.90
2023-03-07T22:46:12.908Z,99.90
2023-03-07T22:48:40.595Z,99.90
2023-03-07T22:51:17.720Z,99.90
2023-03-07T22:53:45.594Z,99.90
2023-03-07T22:56:14.565Z,99.90
2023-03-07T22:58:41.886Z,99.90
2023-03-07T23:01:14.641Z,99.90
2023-03-07T23:03:43.216Z,99.90
2023-03-07T23:06:10.479Z,99.90
2023-03-07T23:08:37.991Z,99.90
2023-03-07T23:11:08.897Z,99.90
2023-03-07T23:13:36.694Z,99.90
2023-03-07T23:16:08.537Z,99.90
2023-03-07T23:18:36.927Z,99.90
2023-03-07T23:21:06.220Z,99.90
2023-03-07T23:23:33.406Z,99.90
2023-03-07T23:26:01.177Z,99.90
2023-03-07T23:28:28.584Z,99.90
2023-03-07T23:30:55.830Z,99.90
2023-03-07T23:33:23.890Z,99.90
2023-03-07T23:35:51.231Z,99.90
2023-03-07T23:38:18.489Z,99.90
2023-03-07T23:40:45.657Z,99.90
2023-03-07T23:43:14.097Z,99.90
2023-03-07T23:45:41.283Z,99.90
2023-03-07T23:48:08.477Z,99.90
2023-03-07T23:50:35.999Z,99.90
2023-03-07T23:53:03.205Z,99.90
2023-03-07T23:55:30.457Z,99.90
2023-03-07T23:57:57.654Z,99.90
